TAF KLVS
KLVS 090539Z 0906/1006 25014G22KT P6SM SKC WS020/28050KT TEMPO 0906/0910 26020G32KT FM091400 25011KT P6SM SKC FM091800 24016G26KT P6SM FEW150 TEMPO 0920/0924 25022G34KT=
METAR KLVS
WC KLVS
WS KLVS
WV KLVS